Time;durP1;ratioP1;P1;durP2;ratioP2;P2;SDS_P1;SDS_P2;PMS_P1;PMS_P2;Temp;Humidity;BMP_temperature;BMP_pressure;BME280_temperature;BME280_humidity;BME280_pressure;Samples;Min_cycle;Max_cycle;Signal;HPM_P1;HPM_P2
2021/04/07 00:01:37;;;;;;;4.15;2.10;;;;;;;;;;4988583;28;20054;-75
2021/04/07 00:04:04;;;;;;;3.40;2.10;;;;;;;;;;4984011;28;20026;-75
2021/04/07 00:06:34;;;;;;;4.20;2.13;;;2.80;90.90;;;;;;5001514;28;20427;-75
2021/04/07 00:09:00;;;;;;;5.85;1.95;;;2.80;91.10;;;;;;4983450;28;20057;-75
2021/04/07 00:11:26;;;;;;;3.90;1.90;;;2.90;90.70;;;;;;5010133;28;20053;-75
2021/04/07 00:13:52;;;;;;;3.70;1.80;;;2.90;90.70;;;;;;4988557;28;20051;-75
2021/04/07 00:16:18;;;;;;;5.65;2.25;;;;;;;;;;5005192;28;20523;-75
2021/04/07 00:18:43;;;;;;;4.38;2.00;;;2.80;90.30;;;;;;4990708;28;20085;-74
2021/04/07 00:21:09;;;;;;;5.32;2.83;;;2.80;90.50;;;;;;4984083;28;20053;-75
2021/04/07 00:23:35;;;;;;;5.72;2.10;;;;;;;;;;4985545;28;20034;-74
2021/04/07 00:26:00;;;;;;;10.68;2.50;;;2.90;89.90;;;;;;5005071;28;20497;-75
2021/04/07 00:28:26;;;;;;;3.88;1.67;;;2.90;89.60;;;;;;5003159;28;20076;-75
2021/04/07 00:30:52;;;;;;;4.68;2.15;;;2.80;90.00;;;;;;5005808;28;20030;-75
2021/04/07 00:33:17;;;;;;;5.05;1.90;;;2.90;90.00;;;;;;5008096;28;20354;-75
2021/04/07 00:35:43;;;;;;;3.03;1.80;;;2.90;90.40;;;;;;4996691;28;20033;-76
2021/04/07 00:38:11;;;;;;;3.13;1.65;;;2.90;90.20;;;;;;4990836;28;20055;-76
2021/04/07 00:40:37;;;;;;;4.25;1.88;;;2.90;90.00;;;;;;5003470;28;20033;-76
2021/04/07 00:43:03;;;;;;;4.20;1.90;;;2.90;90.30;;;;;;5008991;28;20121;-76
2021/04/07 00:45:29;;;;;;;5.22;2.53;;;2.80;90.10;;;;;;4988413;28;20138;-75
2021/04/07 00:47:55;;;;;;;4.53;1.77;;;2.70;90.20;;;;;;4997780;28;20507;-75
2021/04/07 00:50:23;;;;;;;3.75;1.90;;;2.90;89.50;;;;;;5001797;28;20026;-75
2021/04/07 00:52:49;;;;;;;3.88;1.85;;;2.90;89.90;;;;;;4988413;28;20036;-75
2021/04/07 00:55:20;;;;;;;5.82;1.80;;;2.90;89.50;;;;;;4987521;28;20079;-75
2021/04/07 00:57:46;;;;;;;3.58;1.80;;;2.80;89.20;;;;;;5003302;28;20526;-76
2021/04/07 01:00:13;;;;;;;4.72;2.15;;;2.80;89.70;;;;;;4988894;28;20040;-75
2021/04/07 01:02:39;;;;;;;4.43;1.88;;;2.70;90.30;;;;;;4990489;28;20030;-76
2021/04/07 01:05:06;;;;;;;4.57;1.73;;;2.70;90.40;;;;;;4997868;28;20108;-74
2021/04/07 01:07:32;;;;;;;5.03;2.00;;;2.60;90.50;;;;;;4984233;28;20475;-75
2021/04/07 01:09:58;;;;;;;3.80;1.90;;;;;;;;;;5006861;28;20026;-75
2021/04/07 01:12:24;;;;;;;3.63;1.80;;;2.80;90.20;;;;;;5008228;28;20124;-75
2021/04/07 01:14:50;;;;;;;4.75;1.85;;;2.90;90.20;;;;;;5007896;28;20117;-75
2021/04/07 01:17:18;;;;;;;4.00;2.10;;;2.60;90.40;;;;;;5000964;28;20109;-76
2021/04/07 01:19:44;;;;;;;4.25;1.77;;;2.60;90.60;;;;;;5004759;28;20038;-75
2021/04/07 01:22:13;;;;;;;5.35;1.70;;;2.60;90.70;;;;;;4989638;28;20034;-73
2021/04/07 01:24:39;;;;;;;3.35;1.67;;;2.60;90.90;;;;;;4985830;28;20553;-76
2021/04/07 01:27:05;;;;;;;4.80;1.90;;;2.60;90.80;;;;;;5006404;28;20038;-74
2021/04/07 01:29:31;;;;;;;4.75;1.80;;;2.60;91.00;;;;;;5008237;28;20018;-76
2021/04/07 01:31:57;;;;;;;4.55;1.90;;;2.60;90.80;;;;;;4986329;28;20026;-74
2021/04/07 01:34:24;;;;;;;5.10;1.90;;;2.50;90.90;;;;;;5011763;28;20021;-75
2021/04/07 01:36:51;;;;;;;3.67;1.77;;;2.50;91.10;;;;;;4994821;28;20133;-75
2021/04/07 01:39:19;;;;;;;3.83;1.85;;;2.50;90.70;;;;;;4995588;28;20062;-76
2021/04/07 01:41:45;;;;;;;5.80;1.85;;;2.50;91.00;;;;;;4990855;28;20121;-76
2021/04/07 01:44:13;;;;;;;3.72;1.77;;;2.50;91.00;;;;;;5011068;28;20025;-75
2021/04/07 01:46:39;;;;;;;3.13;1.80;;;2.40;91.10;;;;;;5011126;28;20392;-77
2021/04/07 01:49:08;;;;;;;5.43;1.90;;;2.40;91.10;;;;;;5005935;28;20080;-75
2021/04/07 01:51:34;;;;;;;4.72;1.90;;;2.50;91.00;;;;;;5006435;28;20031;-75
2021/04/07 01:54:02;;;;;;;4.65;1.90;;;2.40;91.10;;;;;;4997683;28;20554;-76
2021/04/07 01:56:30;;;;;;;5.75;1.95;;;3.80;90.80;;;;;;5013325;28;20033;-77
2021/04/07 01:59:06;;;;;;;7.22;2.03;;;2.40;90.00;;;;;;4993371;28;20037;-76
2021/04/07 02:01:36;;;;;;;4.57;1.60;;;2.40;90.10;;;;;;4994488;28;20030;-75
2021/04/07 02:04:03;;;;;;;6.22;1.95;;;2.50;89.60;;;;;;4991631;28;20037;-76
2021/04/07 02:06:29;;;;;;;5.75;1.70;;;2.50;89.60;;;;;;4980382;28;20116;-75
2021/04/07 02:08:54;;;;;;;8.27;1.67;;;2.60;87.90;;;;;;5002101;28;20053;-75
2021/04/07 02:11:20;;;;;;;8.27;2.15;;;2.50;88.20;;;;;;4988149;28;20022;-76
2021/04/07 02:13:45;;;;;;;6.45;2.53;;;2.50;88.20;;;;;;4992768;28;20089;-74
2021/04/07 02:16:13;;;;;;;4.97;2.08;;;2.50;88.70;;;;;;4990980;28;20117;-74
2021/04/07 02:18:39;;;;;;;6.28;2.35;;;2.50;88.70;;;;;;5012014;28;20032;-77
2021/04/07 02:21:05;;;;;;;4.40;2.00;;;2.50;87.90;;;;;;4990241;28;20898;-75
2021/04/07 02:23:32;;;;;;;8.80;2.00;;;2.50;88.20;;;;;;5000359;28;20436;-74
2021/04/07 02:25:58;;;;;;;5.00;1.60;;;2.40;88.60;;;;;;4999938;28;20052;-75
2021/04/07 02:28:24;;;;;;;7.63;2.45;;;2.50;89.10;;;;;;5012299;28;20036;-76
2021/04/07 02:30:50;;;;;;;4.72;1.85;;;2.30;90.20;;;;;;4998426;28;20101;-76
2021/04/07 02:33:16;;;;;;;3.20;1.50;;;2.30;90.40;;;;;;5010959;28;20112;-75
2021/04/07 02:35:41;;;;;;;4.35;1.30;;;2.30;90.80;;;;;;4994348;28;20103;-75
2021/04/07 02:38:08;;;;;;;5.63;1.75;;;2.30;91.00;;;;;;4994364;28;20033;-75
2021/04/07 02:40:34;;;;;;;1.88;1.15;;;0.70;90.70;;;;;;5007289;28;20034;-76
2021/04/07 02:43:02;;;;;;;4.47;1.83;;;2.30;91.30;;;;;;4991082;28;20029;-78
2021/04/07 02:45:28;;;;;;;4.68;1.52;;;2.30;91.60;;;;;;4996009;28;20034;-75
2021/04/07 02:47:54;;;;;;;5.10;1.58;;;2.30;91.30;;;;;;5009685;28;20506;-74
2021/04/07 02:50:20;;;;;;;2.50;1.20;;;;;;;;;;4996138;28;20033;-75
2021/04/07 02:52:45;;;;;;;5.10;1.90;;;2.20;91.60;;;;;;5008162;28;20034;-74
2021/04/07 02:55:11;;;;;;;3.38;1.55;;;2.20;91.80;;;;;;4989963;28;20030;-75
2021/04/07 02:57:37;;;;;;;5.50;1.77;;;2.20;91.80;;;;;;4992608;28;20034;-75
2021/04/07 03:00:05;;;;;;;3.80;1.63;;;2.30;92.00;;;;;;4999356;28;20033;-79
2021/04/07 03:02:31;;;;;;;3.53;1.52;;;2.30;91.40;;;;;;4995025;28;20452;-74
2021/04/07 03:04:59;;;;;;;4.63;1.52;;;2.20;91.70;;;;;;4996800;28;20025;-76
2021/04/07 03:07:26;;;;;;;4.65;1.55;;;2.20;91.50;;;;;;5004736;28;20117;-76
2021/04/07 03:09:51;;;;;;;6.35;1.60;;;2.10;91.60;;;;;;4987703;28;20034;-76
2021/04/07 03:12:17;;;;;;;3.13;1.55;;;;;;;;;;5008939;28;20269;-77
2021/04/07 03:14:43;;;;;;;4.05;1.70;;;;;;;;;;4987015;28;20033;-76
2021/04/07 03:17:11;;;;;;;4.68;1.70;;;2.40;90.70;;;;;;4989232;28;20038;-79
2021/04/07 03:19:37;;;;;;;4.15;1.63;;;2.30;90.90;;;;;;4987755;28;20036;-76
2021/04/07 03:22:03;;;;;;;4.70;1.70;;;2.30;90.60;;;;;;5004029;28;20034;-77
2021/04/07 03:24:29;;;;;;;4.38;1.70;;;2.30;90.80;;;;;;5008638;28;20060;-76
2021/04/07 03:26:55;;;;;;;5.72;2.00;;;2.30;90.80;;;;;;5006939;28;20025;-76
2021/04/07 03:29:20;;;;;;;4.30;1.52;;;2.20;90.90;;;;;;4988989;28;20049;-77
2021/04/07 03:31:46;;;;;;;4.68;1.73;;;2.20;90.70;;;;;;4992981;28;20029;-76
2021/04/07 03:34:12;;;;;;;4.45;2.30;;;2.30;90.80;;;;;;5013863;28;20037;-77
2021/04/07 03:36:39;;;;;;;6.40;2.25;;;2.20;90.90;;;;;;4996563;28;21884;-76
2021/04/07 03:39:05;;;;;;;3.90;1.70;;;2.20;90.60;;;;;;5014330;28;20034;-76
2021/04/07 03:41:31;;;;;;;4.68;1.90;;;2.30;90.50;;;;;;5005892;28;20034;-77
2021/04/07 03:43:56;;;;;;;5.97;1.80;;;2.30;90.70;;;;;;5006476;28;20034;-77
2021/04/07 03:46:22;;;;;;;3.90;1.85;;;2.20;90.80;;;;;;5007586;28;20085;-75
2021/04/07 03:48:48;;;;;;;4.97;1.88;;;2.20;90.80;;;;;;4993919;28;20084;-77
2021/04/07 03:51:13;;;;;;;5.25;2.08;;;2.20;90.50;;;;;;4993039;28;20030;-76
2021/04/07 03:53:39;;;;;;;4.43;2.08;;;2.20;90.80;;;;;;5014650;28;20083;-76
2021/04/07 03:56:06;;;;;;;7.63;2.08;;;2.20;91.00;;;;;;5010920;28;20029;-77
2021/04/07 03:58:31;;;;;;;6.00;2.15;;;2.20;90.80;;;;;;4997036;28;20045;-77
2021/04/07 04:00:57;;;;;;;7.90;2.40;;;2.10;90.60;;;;;;5010258;28;20034;-76
2021/04/07 04:03:22;;;;;;;5.75;1.95;;;2.10;90.90;;;;;;4999218;28;20030;-77
2021/04/07 04:05:49;;;;;;;5.18;1.98;;;;;;;;;;4993269;28;20041;-78
2021/04/07 04:08:15;;;;;;;7.53;2.33;;;2.20;90.50;;;;;;5014494;28;20102;-76
2021/04/07 04:10:41;;;;;;;4.85;1.80;;;2.10;90.70;;;;;;4998805;28;20025;-76
2021/04/07 04:13:07;;;;;;;6.25;2.38;;;2.10;90.90;;;;;;5010857;28;20488;-77
2021/04/07 04:15:33;;;;;;;5.53;1.92;;;2.10;90.80;;;;;;5009585;28;20021;-78
2021/04/07 04:17:59;;;;;;;5.85;1.90;;;2.10;91.00;;;;;;4990377;28;20030;-77
2021/04/07 04:20:26;;;;;;;6.05;1.83;;;;;;;;;;4992605;28;20053;-77
2021/04/07 04:22:52;;;;;;;9.57;2.20;;;2.00;90.70;;;;;;5020354;28;20408;-76
2021/04/07 04:25:20;;;;;;;5.55;2.00;;;5.60;91.70;;;;;;4993651;28;20037;-77
2021/04/07 04:27:46;;;;;;;5.47;2.05;;;2.00;90.90;;;;;;4991877;28;20040;-75
2021/04/07 04:30:14;;;;;;;10.88;3.00;;;2.00;91.00;;;;;;4993430;28;20025;-76
2021/04/07 04:32:40;;;;;;;5.50;2.60;;;1.90;91.00;;;;;;4995522;28;20067;-76
2021/04/07 04:35:07;;;;;;;5.25;2.28;;;2.00;91.00;;;;;;5011141;28;20037;-75
2021/04/07 04:37:33;;;;;;;6.72;2.10;;;2.00;91.00;;;;;;4995830;28;20029;-76
2021/04/07 04:39:59;;;;;;;6.20;2.05;;;1.80;91.40;;;;;;4992952;28;20406;-76
2021/04/07 04:42:24;;;;;;;2.85;1.98;;;1.80;91.60;;;;;;4989027;28;20069;-74
2021/04/07 04:44:50;;;;;;;5.47;2.35;;;1.90;91.60;;;;;;4986373;28;20034;-78
2021/04/07 04:47:16;;;;;;;6.50;2.40;;;;;;;;;;4984630;28;20032;-76
2021/04/07 04:49:42;;;;;;;6.28;3.17;;;1.90;91.50;;;;;;5005911;28;20034;-76
2021/04/07 04:52:10;;;;;;;7.68;2.50;;;2.00;91.30;;;;;;5006612;28;20085;-77
2021/04/07 04:54:36;;;;;;;6.13;2.65;;;1.90;91.70;;;;;;5009865;28;20048;-75
2021/04/07 04:57:02;;;;;;;5.75;2.58;;;;;;;;;;5006932;28;20034;-75
2021/04/07 04:59:30;;;;;;;6.43;2.88;;;1.80;91.80;;;;;;5002451;28;20053;-76
2021/04/07 05:01:56;;;;;;;9.85;2.92;;;1.70;92.10;;;;;;4991359;28;20022;-77
2021/04/07 05:04:22;;;;;;;7.65;2.88;;;;;;;;;;4988834;28;20053;-78
2021/04/07 05:06:47;;;;;;;8.95;2.30;;;1.80;92.30;;;;;;5006402;28;20030;-76
2021/04/07 05:09:13;;;;;;;6.35;2.78;;;1.80;92.00;;;;;;4988375;28;20030;-77
2021/04/07 05:11:38;;;;;;;7.38;3.00;;;2.00;91.40;;;;;;4989914;28;20034;-78
2021/04/07 05:14:04;;;;;;;7.78;2.60;;;2.00;91.30;;;;;;4996204;28;20042;-76
2021/04/07 05:16:32;;;;;;;4.97;2.55;;;2.10;91.40;;;;;;4986627;28;20041;-77
2021/04/07 05:18:58;;;;;;;6.65;2.90;;;;;;;;;;4988968;28;20041;-77
2021/04/07 05:21:24;;;;;;;5.20;2.50;;;2.20;91.10;;;;;;5006719;28;20494;-78
2021/04/07 05:23:50;;;;;;;6.03;3.08;;;2.10;91.30;;;;;;5001383;28;20029;-76
2021/04/07 05:26:15;;;;;;;6.53;2.92;;;4.30;92.10;;;;;;4985922;28;20053;-76
2021/04/07 05:28:42;;;;;;;5.43;2.67;;;;;;;;;;5009404;28;20089;-76
2021/04/07 05:31:14;;;;;;;9.27;3.13;;;2.10;91.20;;;;;;5002121;28;20037;-78
2021/04/07 05:33:41;;;;;;;4.85;2.80;;;2.10;91.40;;;;;;5009157;28;20045;-76
2021/04/07 05:36:12;;;;;;;5.82;3.28;;;2.10;91.60;;;;;;5003090;28;20033;-77
2021/04/07 05:38:38;;;;;;;5.90;2.88;;;2.00;92.00;;;;;;5010096;28;20026;-76
2021/04/07 05:41:05;;;;;;;7.53;3.20;;;2.00;92.20;;;;;;4994098;28;20045;-76
2021/04/07 05:43:31;;;;;;;7.68;3.55;;;;;;;;;;5007231;28;20077;-78
2021/04/07 05:45:57;;;;;;;10.48;3.38;;;;;;;;;;5006338;28;20572;-77
2021/04/07 05:48:23;;;;;;;7.45;3.05;;;2.00;92.60;;;;;;4989431;28;20032;-77
2021/04/07 05:50:51;;;;;;;6.38;3.08;;;2.00;92.70;;;;;;4999516;28;20038;-77
2021/04/07 05:53:17;;;;;;;11.25;4.03;;;2.10;92.80;;;;;;4988251;28;20145;-77
2021/04/07 05:55:51;;;;;;;8.23;3.20;;;2.10;93.10;;;;;;4993760;28;20059;-75
2021/04/07 05:58:17;;;;;;;9.40;3.55;;;;;;;;;;5005163;28;21460;-76
2021/04/07 06:00:43;;;;;;;13.38;4.30;;;2.10;93.40;;;;;;4980526;28;20026;-76
2021/04/07 06:03:10;;;;;;;7.95;3.28;;;2.10;93.60;;;;;;4981937;28;20152;-77
2021/04/07 06:05:37;;;;;;;9.73;4.05;;;2.10;93.60;;;;;;4991005;28;20057;-77
2021/04/07 06:08:04;;;;;;;11.70;3.70;;;2.10;93.40;;;;;;4982411;28;20503;-76
2021/04/07 06:10:30;;;;;;;7.45;4.03;;;2.20;93.00;;;;;;5001899;28;20190;-74
2021/04/07 06:12:58;;;;;;;9.50;4.00;;;2.30;93.10;;;;;;4976085;28;20069;-77
2021/04/07 06:15:24;;;;;;;14.80;4.30;;;2.30;93.20;;;;;;4975621;28;20129;-77
2021/04/07 06:17:56;;;;;;;9.48;3.97;;;2.30;92.90;;;;;;4975889;28;20053;-77
2021/04/07 06:20:23;;;;;;;9.50;3.67;;;2.30;93.00;;;;;;4997887;28;20038;-76
2021/04/07 06:22:51;;;;;;;8.00;3.33;;;2.20;93.20;;;;;;4991391;28;20041;-75
2021/04/07 06:25:18;;;;;;;10.88;3.83;;;2.30;93.00;;;;;;5006099;28;20159;-76
2021/04/07 06:27:51;;;;;;;11.30;3.58;;;2.30;92.50;;;;;;4991925;28;20037;-76
2021/04/07 06:30:18;;;;;;;7.70;3.10;;;2.30;92.40;;;;;;4977371;28;20034;-76
2021/04/07 06:32:44;;;;;;;12.77;5.00;;;2.40;92.50;;;;;;4986480;28;20475;-76
2021/04/07 06:35:10;;;;;;;6.50;2.97;;;2.40;92.20;;;;;;4991163;28;20044;-76
2021/04/07 06:37:36;;;;;;;8.98;3.72;;;;;;;;;;4993825;28;20033;-76
2021/04/07 06:40:03;;;;;;;13.30;4.00;;;2.60;92.00;;;;;;4988600;28;20045;-76
2021/04/07 06:42:30;;;;;;;9.45;3.33;;;2.60;92.00;;;;;;5002927;28;20022;-76
2021/04/07 06:44:57;;;;;;;12.30;4.35;;;2.50;92.20;;;;;;5005775;28;20068;-76
2021/04/07 06:47:22;;;;;;;9.80;4.03;;;2.60;92.70;;;;;;4985543;28;20034;-76
2021/04/07 06:49:51;;;;;;;10.02;3.55;;;2.60;92.60;;;;;;4985370;28;20442;-76
2021/04/07 06:52:20;;;;;;;11.23;3.80;;;2.60;92.50;;;;;;4990844;28;20034;-76
2021/04/07 06:54:50;;;;;;;9.18;3.38;;;2.70;92.30;;;;;;5004467;28;20069;-77
2021/04/07 06:57:16;;;;;;;6.47;3.30;;;2.70;92.10;;;;;;5004295;28;20045;-78
2021/04/07 06:59:43;;;;;;;11.30;3.78;;;2.70;92.30;;;;;;5000697;28;20298;-76
2021/04/07 07:02:10;;;;;;;8.13;3.08;;;2.80;91.90;;;;;;5002449;28;20034;-74
2021/04/07 07:04:36;;;;;;;9.50;3.45;;;2.70;91.90;;;;;;4989374;28;20068;-77
2021/04/07 07:07:02;;;;;;;7.82;3.22;;;2.80;91.80;;;;;;4996204;28;20042;-74
2021/04/07 07:09:28;;;;;;;10.93;3.33;;;2.80;92.30;;;;;;4974858;28;20410;-75
2021/04/07 07:11:54;;;;;;;7.53;3.60;;;2.80;92.10;;;;;;4983802;28;20978;-74
2021/04/07 07:14:21;;;;;;;7.47;3.15;;;2.70;92.20;;;;;;4992345;28;20034;-75
2021/04/07 07:16:49;;;;;;;7.45;3.20;;;2.70;92.20;;;;;;5007334;28;20026;-75
2021/04/07 07:19:30;;;;;;;3.13;1.75;;;2.70;92.40;;;;;;4991885;28;20036;-74
2021/04/07 07:22:01;;;;;;;11.45;3.78;;;2.70;92.10;;;;;;4987966;28;21851;-74
2021/04/07 07:24:37;;;;;;;8.85;3.05;;;2.80;92.20;;;;;;5009555;28;20091;-76
2021/04/07 07:27:08;;;;;;;7.85;2.95;;;2.80;92.00;;;;;;5002213;28;20145;-74
2021/04/07 07:29:35;;;;;;;8.00;3.38;;;2.90;91.80;;;;;;5003753;28;20030;-76
2021/04/07 07:32:06;;;;;;;9.15;3.15;;;3.00;91.40;;;;;;4986791;28;20034;-75
2021/04/07 07:34:32;;;;;;;;;;;2.90;91.40;;;;;;5006367;28;20060;-75
2021/04/07 07:37:00;;;;;;;8.70;2.92;;;2.80;91.30;;;;;;4995862;28;19920;-75
2021/04/07 07:39:37;;;;;;;6.53;2.83;;;2.90;91.40;;;;;;5002185;28;20022;-74
2021/04/07 07:42:06;;;;;;;8.60;3.28;;;1.70;90.50;;;;;;5004914;28;20060;-74
2021/04/07 07:44:41;;;;;;;9.57;3.35;;;3.10;91.10;;;;;;4984296;28;20032;-74
2021/04/07 07:47:21;;;;;;;10.15;3.25;;;3.20;91.00;;;;;;4988100;28;20022;-74
2021/04/07 07:50:08;;;;;;;8.55;3.42;;;6.60;91.10;;;;;;4985073;28;20030;-77
2021/04/07 07:52:36;;;;;;;8.07;2.90;;;3.30;90.10;;;;;;4985718;28;20044;-75
2021/04/07 07:55:16;;;;;;;7.68;2.55;;;3.40;90.30;;;;;;4984474;28;20021;-75
2021/04/07 07:57:52;;;;;;;6.75;2.70;;;3.30;90.30;;;;;;5005265;28;20516;-75
2021/04/07 08:00:19;;;;;;;6.80;2.60;;;3.50;90.20;;;;;;4991771;28;20032;-74
2021/04/07 08:02:44;;;;;;;13.52;3.22;;;3.60;89.10;;;;;;5003794;28;20036;-78
2021/04/07 08:05:23;;;;;;;6.68;2.63;;;3.80;88.40;;;;;;4999646;28;20025;-76
2021/04/07 08:07:49;;;;;;;10.55;3.35;;;;;;;;;;5007211;28;20049;-76
2021/04/07 08:10:15;;;;;;;5.13;1.58;;;3.70;87.80;;;;;;5016377;28;20096;-76
2021/04/07 08:12:41;;;;;;;9.45;2.55;;;3.70;87.80;;;;;;4991954;28;20505;-76
2021/04/07 08:15:11;;;;;;;7.88;3.03;;;3.60;88.40;;;;;;5006423;28;20041;-78
2021/04/07 08:17:37;;;;;;;7.75;2.42;;;3.80;87.50;;;;;;4991689;28;20049;-76
2021/04/07 08:20:07;;;;;;;10.65;2.80;;;3.80;87.60;;;;;;4995243;28;20507;-76
2021/04/07 08:22:36;;;;;;;7.68;2.33;;;3.90;86.10;;;;;;5005354;28;20507;-76
2021/04/07 08:25:06;;;;;;;6.35;2.20;;;3.80;86.10;;;;;;5005143;28;20026;-76
2021/04/07 08:27:35;;;;;;;8.55;2.35;;;3.80;86.50;;;;;;5010350;28;20186;-75
2021/04/07 08:30:06;;;;;;;9.10;2.33;;;4.30;87.10;;;;;;4996112;28;20112;-75
2021/04/07 08:32:32;;;;;;;9.75;2.67;;;3.80;86.60;;;;;;4993643;28;20072;-76
2021/04/07 08:34:58;;;;;;;11.90;2.90;;;3.80;87.80;;;;;;4992894;28;20037;-76
2021/04/07 08:37:29;;;;;;;7.35;2.88;;;3.80;87.30;;;;;;5006564;28;20034;-77
2021/04/07 08:39:55;;;;;;;;;;;3.90;87.00;;;;;;4998148;28;20037;-76
2021/04/07 08:42:22;;;;;;;9.40;3.65;;;4.00;86.90;;;;;;4984473;28;19922;-76
2021/04/07 08:44:49;;;;;;;7.15;2.60;;;4.00;86.10;;;;;;4991540;28;20032;-77
2021/04/07 08:47:30;;;;;;;7.72;2.03;;;4.00;86.50;;;;;;4999646;28;20407;-75
2021/04/07 08:50:07;;;;;;;12.70;3.55;;;6.80;87.50;;;;;;4999448;28;20097;-78
2021/04/07 08:52:45;;;;;;;8.40;2.42;;;4.00;85.50;;;;;;5007487;28;20030;-76
2021/04/07 08:55:27;;;;;;;12.23;3.15;;;4.00;85.70;;;;;;4984816;28;20025;-76
2021/04/07 08:58:04;;;;;;;10.98;3.25;;;4.00;86.20;;;;;;4987467;28;20049;-76
2021/04/07 09:00:35;;;;;;;9.18;3.53;;;4.20;85.40;;;;;;5003862;28;20126;-78
2021/04/07 09:03:14;;;;;;;5.53;2.20;;;4.20;84.90;;;;;;5005454;28;20038;-76
2021/04/07 09:05:43;;;;;;;4.90;2.15;;;4.20;85.30;;;;;;4996349;28;20121;-76
2021/04/07 09:08:13;;;;;;;9.40;2.53;;;4.20;84.20;;;;;;4985968;28;20053;-76
2021/04/07 09:10:48;;;;;;;7.28;2.10;;;4.20;84.70;;;;;;5003627;28;20033;-75
2021/04/07 09:13:16;;;;;;;5.97;2.20;;;4.30;84.90;;;;;;4996233;28;20061;-75
2021/04/07 09:15:48;;;;;;;6.90;2.72;;;4.30;84.70;;;;;;4990570;28;20108;-76
2021/04/07 09:18:16;;;;;;;7.55;2.42;;;4.50;84.20;;;;;;5007863;28;20294;-76
2021/04/07 09:20:52;;;;;;;8.93;2.40;;;4.50;83.20;;;;;;4986106;28;20054;-76
2021/04/07 09:23:31;;;;;;;8.88;2.72;;;4.50;83.80;;;;;;5001005;28;20040;-76
2021/04/07 09:26:16;;;;;;;10.48;2.55;;;4.60;84.50;;;;;;4999555;28;20855;-75
2021/04/07 09:28:47;;;;;;;6.55;2.25;;;4.60;84.60;;;;;;4989944;28;20500;-75
2021/04/07 09:31:23;;;;;;;6.60;2.53;;;4.60;83.80;;;;;;4990533;28;20029;-76
2021/04/07 09:33:54;;;;;;;4.90;1.88;;;4.50;83.10;;;;;;4993106;28;20038;-75
2021/04/07 09:36:25;;;;;;;;;;;4.50;83.10;;;;;;5010040;28;20046;-74
2021/04/07 09:38:54;;;;;;;6.47;2.30;;;4.60;83.50;;;;;;5010518;28;19981;-75
2021/04/07 09:41:25;;;;;;;9.55;2.10;;;4.40;82.60;;;;;;4991081;28;20423;-75
2021/04/07 09:43:52;;;;;;;7.22;2.85;;;4.40;83.40;;;;;;5005801;28;20170;-76
2021/04/07 09:46:19;;;;;;;5.50;2.40;;;3.60;83.40;;;;;;5006831;28;20097;-76
2021/04/07 09:48:50;;;;;;;8.27;2.70;;;4.50;83.30;;;;;;4992025;28;20473;-75
2021/04/07 09:51:20;;;;;;;9.57;2.70;;;4.50;82.50;;;;;;4993005;28;20049;-77
2021/04/07 09:53:46;;;;;;;7.35;2.22;;;4.50;82.90;;;;;;4997259;28;20034;-76
2021/04/07 09:56:14;;;;;;;10.27;2.28;;;;;;;;;;4996331;28;20029;-76
2021/04/07 09:58:45;;;;;;;11.77;2.85;;;4.40;83.30;;;;;;5019285;28;20033;-74
2021/04/07 10:01:14;;;;;;;7.53;3.28;;;4.40;82.90;;;;;;5008453;28;20129;-76
2021/04/07 10:03:51;;;;;;;7.93;2.13;;;4.40;83.30;;;;;;4989162;28;20056;-76
2021/04/07 10:06:19;;;;;;;5.82;1.45;;;4.60;82.50;;;;;;4994638;28;20068;-76
2021/04/07 10:08:45;;;;;;;9.82;1.80;;;;;;;;;;5013108;28;20037;-74
2021/04/07 10:11:11;;;;;;;4.95;1.35;;;4.30;80.20;;;;;;4995842;28;20030;-75
2021/04/07 10:13:38;;;;;;;7.97;3.30;;;;;;;;;;4996739;28;20041;-77
2021/04/07 10:16:14;;;;;;;3.25;1.42;;;4.20;82.70;;;;;;4983209;28;20030;-76
2021/04/07 10:18:40;;;;;;;7.43;1.83;;;;;;;;;;4989587;28;20029;-76
2021/04/07 10:21:16;;;;;;;6.20;1.95;;;3.80;86.50;;;;;;5008381;28;20033;-74
2021/04/07 10:23:44;;;;;;;5.55;1.70;;;3.80;85.80;;;;;;4995551;28;20022;-74
2021/04/07 10:26:10;;;;;;;6.97;1.95;;;3.80;89.40;;;;;;4974871;28;20476;-75
2021/04/07 10:28:36;;;;;;;6.80;2.35;;;;;;;;;;4996577;28;20030;-76
2021/04/07 10:31:10;;;;;;;6.43;2.40;;;3.60;92.10;;;;;;5014674;28;20100;-76
2021/04/07 10:33:35;;;;;;;10.77;2.35;;;3.60;92.30;;;;;;5013888;28;20034;-76
2021/04/07 10:36:05;;;;;;;9.23;2.67;;;3.50;94.00;;;;;;4998440;28;20041;-75
2021/04/07 10:38:33;;;;;;;7.63;2.50;;;3.60;94.20;;;;;;5015888;28;20113;-75
2021/04/07 10:41:04;;;;;;;3.80;1.70;;;3.50;93.80;;;;;;5007923;28;20048;-76
2021/04/07 10:43:32;;;;;;;5.35;2.03;;;3.40;94.70;;;;;;4993912;28;20526;-76
2021/04/07 10:46:04;;;;;;;8.63;2.67;;;3.40;94.70;;;;;;5011438;28;20026;-79
2021/04/07 10:48:33;;;;;;;10.55;3.13;;;3.40;95.90;;;;;;5008853;28;20054;-76
2021/04/07 10:50:59;;;;;;;6.93;2.35;;;3.30;95.80;;;;;;4994446;28;20113;-76
2021/04/07 10:53:32;;;;;;;4.28;2.17;;;3.00;97.60;;;;;;5004684;28;20031;-77
2021/04/07 10:55:59;;;;;;;5.25;2.72;;;3.10;97.80;;;;;;5004783;28;20045;-76
2021/04/07 10:58:27;;;;;;;8.48;2.58;;;3.10;97.90;;;;;;5007230;28;20029;-76
2021/04/07 11:00:54;;;;;;;7.53;2.50;;;3.10;97.90;;;;;;4990671;28;20030;-76
2021/04/07 11:03:35;;;;;;;8.15;2.33;;;3.20;97.60;;;;;;4998589;28;20022;-75
2021/04/07 11:06:01;;;;;;;6.60;2.38;;;;;;;;;;5000591;28;20125;-76
2021/04/07 11:08:38;;;;;;;9.10;2.22;;;3.10;98.30;;;;;;4990028;28;20053;-76
2021/04/07 11:11:05;;;;;;;7.03;2.67;;;3.10;97.80;;;;;;5004074;28;20052;-76
2021/04/07 11:13:32;;;;;;;7.70;2.65;;;3.10;97.60;;;;;;5005888;28;20021;-76
2021/04/07 11:16:10;;;;;;;6.93;2.40;;;4.20;98.90;;;;;;4988555;28;20537;-76
2021/04/07 11:18:38;;;;;;;5.82;2.50;;;3.10;97.00;;;;;;5006296;28;20497;-77
2021/04/07 11:21:05;;;;;;;8.38;2.35;;;3.10;96.60;;;;;;4992684;28;20105;-75
2021/04/07 11:23:31;;;;;;;7.22;2.50;;;;;;;;;;4992883;28;20030;-75
2021/04/07 11:25:59;;;;;;;8.02;2.40;;;;;;;;;;5001218;28;20030;-74
2021/04/07 11:28:25;;;;;;;6.97;2.55;;;3.10;95.70;;;;;;5008502;28;20044;-76
2021/04/07 11:31:12;;;;;;;6.75;2.30;;;3.20;95.80;;;;;;4993632;28;20031;-77
2021/04/07 11:33:41;;;;;;;6.68;2.08;;;3.10;95.20;;;;;;4990975;28;20061;-78
2021/04/07 11:36:19;;;;;;;8.35;2.20;;;3.80;95.70;;;;;;5005528;28;20042;-75
2021/04/07 11:39:10;;;;;;;6.97;2.75;;;3.10;95.20;;;;;;5007650;28;20038;-77
2021/04/07 11:46:30;;;;;;;8.13;2.55;;;;;;;;;;4999564;28;20053;-75
2021/04/07 11:48:56;;;;;;;5.65;2.33;;;3.40;95.50;;;;;;5011071;28;20354;-75
2021/04/07 11:51:24;;;;;;;10.55;3.25;;;3.40;95.70;;;;;;4995075;28;20033;-76
2021/04/07 11:53:50;;;;;;;9.32;3.60;;;3.60;95.90;;;;;;5004311;28;20079;-77
2021/04/07 11:56:16;;;;;;;5.78;1.90;;;3.70;95.00;;;;;;5009972;28;20034;-75
2021/04/07 11:58:42;;;;;;;5.85;2.25;;;;;;;;;;4986511;28;20116;-78
2021/04/07 12:01:10;;;;;;;9.70;3.08;;;3.70;94.10;;;;;;5000385;28;20034;-76
2021/04/07 12:03:36;;;;;;;6.60;2.40;;;3.70;94.60;;;;;;5009298;28;20040;-77
2021/04/07 12:06:04;;;;;;;4.75;2.05;;;3.70;93.60;;;;;;4994007;28;20124;-75
2021/04/07 12:08:30;;;;;;;6.00;2.35;;;;;;;;;;4988348;28;20029;-76
2021/04/07 12:10:59;;;;;;;7.35;2.47;;;3.50;94.80;;;;;;4997912;28;20045;-76
2021/04/07 12:13:26;;;;;;;12.38;2.97;;;4.10;94.20;;;;;;5007805;28;20030;-76
2021/04/07 12:15:51;;;;;;;7.25;2.30;;;3.70;93.70;;;;;;5005669;28;20030;-75
2021/04/07 12:18:17;;;;;;;7.75;2.80;;;3.70;94.00;;;;;;4988316;28;20041;-75
2021/04/07 12:20:43;;;;;;;7.70;2.33;;;3.70;92.90;;;;;;4988195;28;20030;-75
2021/04/07 12:23:09;;;;;;;10.27;2.60;;;;;;;;;;4990611;28;20069;-76
2021/04/07 12:25:36;;;;;;;5.82;2.80;;;3.60;93.60;;;;;;5003568;28;20630;-79
2021/04/07 12:28:01;;;;;;;6.18;2.45;;;3.50;93.70;;;;;;4991760;28;20057;-77
2021/04/07 12:30:27;;;;;;;11.50;2.55;;;3.70;93.30;;;;;;5003747;28;20072;-76
2021/04/07 12:32:53;;;;;;;5.63;2.50;;;3.80;93.50;;;;;;5012264;28;20045;-76
2021/04/07 12:35:19;;;;;;;7.22;2.33;;;;;;;;;;5008715;28;20395;-75
2021/04/07 12:37:45;;;;;;;6.60;2.38;;;3.70;93.20;;;;;;5003864;28;20034;-78
2021/04/07 12:40:14;;;;;;;7.60;2.40;;;3.80;93.30;;;;;;5007153;28;20165;-77
2021/04/07 12:42:42;;;;;;;7.10;2.40;;;3.80;92.40;;;;;;4987122;28;20041;-76
2021/04/07 12:45:09;;;;;;;6.97;2.22;;;3.90;91.90;;;;;;5010052;28;20028;-76
2021/04/07 12:47:35;;;;;;;6.45;2.30;;;3.80;91.70;;;;;;5007418;28;20060;-79
2021/04/07 12:50:01;;;;;;;7.63;2.75;;;4.00;91.60;;;;;;4995842;28;20037;-77
2021/04/07 12:52:27;;;;;;;3.38;1.73;;;4.00;92.40;;;;;;5008357;28;20048;-75
2021/04/07 12:54:53;;;;;;;8.63;2.25;;;;;;;;;;5003672;28;20477;-76
2021/04/07 12:57:21;;;;;;;6.78;2.33;;;;;;;;;;5008190;28;20040;-76
2021/04/07 12:59:48;;;;;;;7.95;2.20;;;;;;;;;;5004315;28;20045;-76
2021/04/07 13:02:14;;;;;;;9.00;2.90;;;4.50;90.20;;;;;;4995039;28;20022;-76
2021/04/07 13:04:40;;;;;;;6.57;2.10;;;4.50;90.50;;;;;;5010309;28;20253;-76
2021/04/07 13:07:07;;;;;;;10.35;2.80;;;4.60;89.60;;;;;;5001852;28;20029;-76
2021/04/07 13:09:33;;;;;;;6.78;2.00;;;;;;;;;;4989484;28;20040;-76
2021/04/07 13:11:59;;;;;;;7.60;2.65;;;4.90;85.90;;;;;;5005130;28;20030;-76
2021/04/07 13:14:25;;;;;;;4.38;2.03;;;4.90;85.90;;;;;;5001334;28;20109;-78
2021/04/07 13:16:51;;;;;;;6.40;2.33;;;;;;;;;;5007700;28;20469;-77